sensor_id;sensor_type;location;lat;lon;timestamp;P1;durP1;ratioP1;P2;durP2;ratioP2
25365;SDS011;13315;48.274;-1.900;2022-12-18T00:01:17;25.35;;;14.00;;
25365;SDS011;13315;48.274;-1.900;2022-12-18T00:03:43;31.58;;;14.27;;
25365;SDS011;13315;48.274;-1.900;2022-12-18T00:06:09;29.30;;;13.83;;
25365;SDS011;13315;48.274;-1.900;2022-12-18T00:08:36;27.90;;;13.90;;
25365;SDS011;13315;48.274;-1.900;2022-12-18T00:11:03;30.58;;;14.63;;
25365;SDS011;13315;48.274;-1.900;2022-12-18T00:13:29;30.38;;;15.23;;
25365;SDS011;13315;48.274;-1.900;2022-12-18T00:16:00;27.65;;;13.98;;
25365;SDS011;13315;48.274;-1.900;2022-12-18T00:18:26;27.90;;;13.70;;
25365;SDS011;13315;48.274;-1.900;2022-12-18T00:20:53;25.17;;;13.75;;
25365;SDS011;13315;48.274;-1.900;2022-12-18T00:23:19;29.77;;;14.13;;
25365;SDS011;13315;48.274;-1.900;2022-12-18T00:25:45;27.63;;;13.45;;
25365;SDS011;13315;48.274;-1.900;2022-12-18T00:28:11;35.10;;;14.52;;
25365;SDS011;13315;48.274;-1.900;2022-12-18T00:30:37;28.40;;;15.30;;
25365;SDS011;13315;48.274;-1.900;2022-12-18T00:33:03;24.77;;;13.67;;
25365;SDS011;13315;48.274;-1.900;2022-12-18T00:35:29;28.50;;;14.40;;
25365;SDS011;13315;48.274;-1.900;2022-12-18T00:37:55;26.70;;;12.90;;
25365;SDS011;13315;48.274;-1.900;2022-12-18T00:40:21;25.50;;;13.27;;
25365;SDS011;13315;48.274;-1.900;2022-12-18T00:42:47;30.42;;;13.07;;
25365;SDS011;13315;48.274;-1.900;2022-12-18T00:45:26;24.67;;;13.13;;
25365;SDS011;13315;48.274;-1.900;2022-12-18T00:47:53;27.70;;;13.88;;
25365;SDS011;13315;48.274;-1.900;2022-12-18T00:50:19;27.48;;;12.70;;
25365;SDS011;13315;48.274;-1.900;2022-12-18T00:52:45;25.75;;;14.52;;
25365;SDS011;13315;48.274;-1.900;2022-12-18T00:55:12;32.03;;;13.98;;
25365;SDS011;13315;48.274;-1.900;2022-12-18T00:57:39;33.03;;;14.73;;
25365;SDS011;13315;48.274;-1.900;2022-12-18T01:00:06;26.20;;;12.35;;
25365;SDS011;13315;48.274;-1.900;2022-12-18T01:02:32;23.88;;;13.15;;
25365;SDS011;13315;48.274;-1.900;2022-12-18T01:04:58;30.55;;;14.43;;
25365;SDS011;13315;48.274;-1.900;2022-12-18T01:07:25;27.88;;;13.40;;
25365;SDS011;13315;48.274;-1.900;2022-12-18T01:09:51;29.05;;;14.68;;
25365;SDS011;13315;48.274;-1.900;2022-12-18T01:12:17;26.80;;;13.55;;
25365;SDS011;13315;48.274;-1.900;2022-12-18T01:14:43;27.40;;;13.88;;
25365;SDS011;13315;48.274;-1.900;2022-12-18T01:17:09;28.67;;;13.77;;
25365;SDS011;13315;48.274;-1.900;2022-12-18T01:19:35;27.33;;;13.15;;
25365;SDS011;13315;48.274;-1.900;2022-12-18T01:22:01;23.27;;;13.57;;
25365;SDS011;13315;48.274;-1.900;2022-12-18T01:24:27;27.20;;;13.18;;
25365;SDS011;13315;48.274;-1.900;2022-12-18T01:26:53;27.00;;;12.90;;
25365;SDS011;13315;48.274;-1.900;2022-12-18T01:29:19;29.70;;;13.82;;
25365;SDS011;13315;48.274;-1.900;2022-12-18T01:31:45;25.33;;;12.50;;
25365;SDS011;13315;48.274;-1.900;2022-12-18T01:34:11;27.30;;;13.05;;
25365;SDS011;13315;48.274;-1.900;2022-12-18T01:36:38;29.35;;;13.73;;
25365;SDS011;13315;48.274;-1.900;2022-12-18T01:39:05;32.75;;;13.70;;
25365;SDS011;13315;48.274;-1.900;2022-12-18T01:41:32;26.25;;;13.18;;
25365;SDS011;13315;48.274;-1.900;2022-12-18T01:47:01;23.75;;;12.68;;
25365;SDS011;13315;48.274;-1.900;2022-12-18T01:49:27;31.23;;;15.30;;
25365;SDS011;13315;48.274;-1.900;2022-12-18T01:51:54;26.20;;;13.63;;
25365;SDS011;13315;48.274;-1.900;2022-12-18T01:54:20;31.80;;;14.57;;
25365;SDS011;13315;48.274;-1.900;2022-12-18T01:56:46;26.13;;;12.43;;
25365;SDS011;13315;48.274;-1.900;2022-12-18T01:59:12;29.47;;;12.93;;
25365;SDS011;13315;48.274;-1.900;2022-12-18T02:01:38;30.95;;;13.65;;
25365;SDS011;13315;48.274;-1.900;2022-12-18T02:04:21;23.85;;;13.20;;
25365;SDS011;13315;48.274;-1.900;2022-12-18T02:06:48;24.92;;;13.18;;
25365;SDS011;13315;48.274;-1.900;2022-12-18T02:09:18;29.70;;;13.52;;
25365;SDS011;13315;48.274;-1.900;2022-12-18T02:26:37;30.17;;;14.30;;
25365;SDS011;13315;48.274;-1.900;2022-12-18T02:29:11;25.00;;;11.90;;
25365;SDS011;13315;48.274;-1.900;2022-12-18T02:31:40;24.00;;;11.85;;
25365;SDS011;13315;48.274;-1.900;2022-12-18T02:34:08;26.35;;;13.63;;
25365;SDS011;13315;48.274;-1.900;2022-12-18T02:36:34;25.13;;;12.80;;
25365;SDS011;13315;48.274;-1.900;2022-12-18T02:39:01;28.20;;;12.77;;
25365;SDS011;13315;48.274;-1.900;2022-12-18T02:41:27;28.02;;;13.88;;
25365;SDS011;13315;48.274;-1.900;2022-12-18T02:43:59;25.48;;;13.18;;
25365;SDS011;13315;48.274;-1.900;2022-12-18T02:46:34;27.33;;;14.07;;
25365;SDS011;13315;48.274;-1.900;2022-12-18T02:51:41;33.25;;;13.55;;
25365;SDS011;13315;48.274;-1.900;2022-12-18T02:54:14;26.42;;;13.38;;
25365;SDS011;13315;48.274;-1.900;2022-12-18T02:56:46;26.92;;;14.32;;
25365;SDS011;13315;48.274;-1.900;2022-12-18T02:59:17;21.35;;;11.85;;
25365;SDS011;13315;48.274;-1.900;2022-12-18T03:02:06;25.45;;;12.82;;
25365;SDS011;13315;48.274;-1.900;2022-12-18T03:04:43;27.30;;;13.80;;
25365;SDS011;13315;48.274;-1.900;2022-12-18T03:07:11;27.60;;;13.13;;
25365;SDS011;13315;48.274;-1.900;2022-12-18T03:09:42;27.52;;;14.15;;
25365;SDS011;13315;48.274;-1.900;2022-12-18T03:14:49;30.48;;;13.98;;
25365;SDS011;13315;48.274;-1.900;2022-12-18T03:17:16;26.65;;;14.27;;
25365;SDS011;13315;48.274;-1.900;2022-12-18T03:19:43;24.95;;;13.43;;
25365;SDS011;13315;48.274;-1.900;2022-12-18T03:22:11;30.00;;;14.07;;
25365;SDS011;13315;48.274;-1.900;2022-12-18T03:24:38;23.48;;;12.95;;
25365;SDS011;13315;48.274;-1.900;2022-12-18T03:27:06;31.27;;;13.60;;
25365;SDS011;13315;48.274;-1.900;2022-12-18T03:29:34;25.52;;;13.07;;
25365;SDS011;13315;48.274;-1.900;2022-12-18T03:34:32;27.60;;;13.27;;
25365;SDS011;13315;48.274;-1.900;2022-12-18T03:36:59;31.23;;;13.43;;
25365;SDS011;13315;48.274;-1.900;2022-12-18T03:39:25;31.75;;;13.90;;
25365;SDS011;13315;48.274;-1.900;2022-12-18T03:44:38;27.67;;;13.35;;
25365;SDS011;13315;48.274;-1.900;2022-12-18T03:49:55;26.40;;;13.75;;
25365;SDS011;13315;48.274;-1.900;2022-12-18T03:54:48;26.95;;;13.95;;
25365;SDS011;13315;48.274;-1.900;2022-12-18T03:57:21;27.85;;;13.15;;
25365;SDS011;13315;48.274;-1.900;2022-12-18T03:59:49;31.08;;;14.57;;
25365;SDS011;13315;48.274;-1.900;2022-12-18T04:02:16;30.13;;;14.32;;
25365;SDS011;13315;48.274;-1.900;2022-12-18T04:04:43;26.73;;;13.02;;
25365;SDS011;13315;48.274;-1.900;2022-12-18T04:07:10;26.08;;;13.75;;
25365;SDS011;13315;48.274;-1.900;2022-12-18T04:09:38;28.70;;;13.88;;
25365;SDS011;13315;48.274;-1.900;2022-12-18T04:12:04;24.20;;;12.98;;
25365;SDS011;13315;48.274;-1.900;2022-12-18T04:14:31;25.08;;;12.98;;
25365;SDS011;13315;48.274;-1.900;2022-12-18T04:17:00;33.90;;;13.30;;
25365;SDS011;13315;48.274;-1.900;2022-12-18T04:19:27;26.10;;;13.68;;
25365;SDS011;13315;48.274;-1.900;2022-12-18T04:21:53;25.63;;;13.30;;
25365;SDS011;13315;48.274;-1.900;2022-12-18T04:24:19;28.67;;;13.88;;
25365;SDS011;13315;48.274;-1.900;2022-12-18T04:26:46;23.08;;;12.27;;
25365;SDS011;13315;48.274;-1.900;2022-12-18T04:29:12;22.92;;;12.52;;
25365;SDS011;13315;48.274;-1.900;2022-12-18T04:31:38;24.50;;;12.73;;
25365;SDS011;13315;48.274;-1.900;2022-12-18T04:34:04;26.67;;;14.15;;
25365;SDS011;13315;48.274;-1.900;2022-12-18T04:36:30;25.25;;;13.45;;
25365;SDS011;13315;48.274;-1.900;2022-12-18T04:38:56;30.67;;;13.75;;
25365;SDS011;13315;48.274;-1.900;2022-12-18T04:41:22;25.17;;;12.95;;
25365;SDS011;13315;48.274;-1.900;2022-12-18T04:43:48;26.10;;;12.88;;
25365;SDS011;13315;48.274;-1.900;2022-12-18T04:46:14;25.25;;;12.10;;
25365;SDS011;13315;48.274;-1.900;2022-12-18T04:48:40;26.17;;;12.90;;
25365;SDS011;13315;48.274;-1.900;2022-12-18T04:51:07;25.67;;;13.10;;
25365;SDS011;13315;48.274;-1.900;2022-12-18T04:53:33;25.50;;;13.30;;
25365;SDS011;13315;48.274;-1.900;2022-12-18T04:58:34;28.67;;;13.38;;
25365;SDS011;13315;48.274;-1.900;2022-12-18T05:01:01;22.20;;;11.68;;
25365;SDS011;13315;48.274;-1.900;2022-12-18T05:03:27;25.10;;;12.27;;
25365;SDS011;13315;48.274;-1.900;2022-12-18T05:05:53;29.30;;;13.35;;
25365;SDS011;13315;48.274;-1.900;2022-12-18T05:08:19;27.20;;;12.85;;
25365;SDS011;13315;48.274;-1.900;2022-12-18T05:10:45;23.90;;;12.25;;
25365;SDS011;13315;48.274;-1.900;2022-12-18T05:13:11;22.17;;;11.73;;
25365;SDS011;13315;48.274;-1.900;2022-12-18T05:15:37;28.30;;;14.15;;
25365;SDS011;13315;48.274;-1.900;2022-12-18T05:18:04;24.15;;;13.02;;
25365;SDS011;13315;48.274;-1.900;2022-12-18T05:20:30;24.85;;;13.18;;
25365;SDS011;13315;48.274;-1.900;2022-12-18T05:22:56;26.75;;;12.82;;
25365;SDS011;13315;48.274;-1.900;2022-12-18T05:25:23;23.58;;;12.35;;
25365;SDS011;13315;48.274;-1.900;2022-12-18T05:27:49;26.73;;;13.43;;
25365;SDS011;13315;48.274;-1.900;2022-12-18T05:30:15;22.70;;;12.40;;
25365;SDS011;13315;48.274;-1.900;2022-12-18T05:32:42;28.00;;;13.27;;
25365;SDS011;13315;48.274;-1.900;2022-12-18T05:35:08;25.00;;;12.73;;
25365;SDS011;13315;48.274;-1.900;2022-12-18T05:37:35;31.27;;;12.43;;
25365;SDS011;13315;48.274;-1.900;2022-12-18T05:40:02;28.42;;;12.57;;
25365;SDS011;13315;48.274;-1.900;2022-12-18T05:42:28;27.20;;;12.95;;
25365;SDS011;13315;48.274;-1.900;2022-12-18T05:44:54;24.33;;;13.18;;
25365;SDS011;13315;48.274;-1.900;2022-12-18T05:47:20;29.88;;;13.40;;
25365;SDS011;13315;48.274;-1.900;2022-12-18T05:49:46;27.90;;;13.15;;
25365;SDS011;13315;48.274;-1.900;2022-12-18T05:52:12;22.08;;;11.90;;
25365;SDS011;13315;48.274;-1.900;2022-12-18T05:54:38;25.05;;;13.98;;
25365;SDS011;13315;48.274;-1.900;2022-12-18T05:57:04;22.48;;;12.15;;
25365;SDS011;13315;48.274;-1.900;2022-12-18T05:59:30;24.05;;;13.13;;
25365;SDS011;13315;48.274;-1.900;2022-12-18T06:01:57;23.63;;;12.85;;
25365;SDS011;13315;48.274;-1.900;2022-12-18T06:04:23;23.98;;;12.55;;
25365;SDS011;13315;48.274;-1.900;2022-12-18T06:06:49;24.67;;;12.73;;
25365;SDS011;13315;48.274;-1.900;2022-12-18T06:09:15;23.60;;;12.40;;
25365;SDS011;13315;48.274;-1.900;2022-12-18T06:11:41;25.38;;;13.18;;
25365;SDS011;13315;48.274;-1.900;2022-12-18T06:14:08;22.48;;;11.73;;
25365;SDS011;13315;48.274;-1.900;2022-12-18T06:16:35;22.42;;;11.77;;
25365;SDS011;13315;48.274;-1.900;2022-12-18T06:19:02;24.92;;;12.68;;
25365;SDS011;13315;48.274;-1.900;2022-12-18T06:21:28;21.58;;;12.25;;
25365;SDS011;13315;48.274;-1.900;2022-12-18T06:23:55;27.27;;;13.30;;
25365;SDS011;13315;48.274;-1.900;2022-12-18T06:26:21;26.40;;;13.00;;
25365;SDS011;13315;48.274;-1.900;2022-12-18T06:28:47;24.63;;;13.43;;
25365;SDS011;13315;48.274;-1.900;2022-12-18T06:31:13;25.67;;;12.43;;
25365;SDS011;13315;48.274;-1.900;2022-12-18T06:33:39;28.42;;;13.55;;
25365;SDS011;13315;48.274;-1.900;2022-12-18T06:36:07;25.60;;;13.63;;
25365;SDS011;13315;48.274;-1.900;2022-12-18T06:38:33;24.58;;;12.68;;
25365;SDS011;13315;48.274;-1.900;2022-12-18T06:41:00;27.58;;;13.05;;
25365;SDS011;13315;48.274;-1.900;2022-12-18T06:43:26;24.08;;;12.63;;
25365;SDS011;13315;48.274;-1.900;2022-12-18T06:45:57;28.70;;;13.10;;
25365;SDS011;13315;48.274;-1.900;2022-12-18T06:48:23;29.63;;;13.20;;
25365;SDS011;13315;48.274;-1.900;2022-12-18T06:50:49;21.00;;;11.82;;
25365;SDS011;13315;48.274;-1.900;2022-12-18T06:53:15;23.50;;;13.18;;
25365;SDS011;13315;48.274;-1.900;2022-12-18T06:55:41;21.10;;;11.80;;
25365;SDS011;13315;48.274;-1.900;2022-12-18T06:58:07;23.85;;;12.02;;
25365;SDS011;13315;48.274;-1.900;2022-12-18T07:00:33;22.65;;;11.73;;
25365;SDS011;13315;48.274;-1.900;2022-12-18T07:02:59;26.00;;;13.52;;
25365;SDS011;13315;48.274;-1.900;2022-12-18T07:05:25;20.73;;;11.35;;
25365;SDS011;13315;48.274;-1.900;2022-12-18T07:07:51;21.63;;;11.10;;
25365;SDS011;13315;48.274;-1.900;2022-12-18T07:10:18;21.35;;;12.13;;
25365;SDS011;13315;48.274;-1.900;2022-12-18T07:12:44;23.75;;;12.18;;
25365;SDS011;13315;48.274;-1.900;2022-12-18T07:15:10;24.52;;;13.15;;
25365;SDS011;13315;48.274;-1.900;2022-12-18T07:17:36;22.75;;;11.73;;
25365;SDS011;13315;48.274;-1.900;2022-12-18T07:20:03;24.40;;;10.98;;
25365;SDS011;13315;48.274;-1.900;2022-12-18T07:22:29;21.52;;;12.38;;
25365;SDS011;13315;48.274;-1.900;2022-12-18T07:24:55;27.83;;;13.60;;
25365;SDS011;13315;48.274;-1.900;2022-12-18T07:27:21;22.20;;;12.23;;
25365;SDS011;13315;48.274;-1.900;2022-12-18T07:29:47;26.75;;;12.50;;
25365;SDS011;13315;48.274;-1.900;2022-12-18T07:32:14;21.38;;;12.55;;
25365;SDS011;13315;48.274;-1.900;2022-12-18T07:34:40;25.67;;;12.80;;
25365;SDS011;13315;48.274;-1.900;2022-12-18T07:37:06;20.63;;;11.15;;
25365;SDS011;13315;48.274;-1.900;2022-12-18T07:39:32;23.20;;;12.23;;
25365;SDS011;13315;48.274;-1.900;2022-12-18T07:41:58;28.27;;;12.77;;
25365;SDS011;13315;48.274;-1.900;2022-12-18T07:44:43;21.02;;;12.50;;
25365;SDS011;13315;48.274;-1.900;2022-12-18T07:47:09;20.42;;;11.65;;
25365;SDS011;13315;48.274;-1.900;2022-12-18T07:49:35;20.20;;;11.98;;
25365;SDS011;13315;48.274;-1.900;2022-12-18T07:52:01;24.10;;;12.35;;
25365;SDS011;13315;48.274;-1.900;2022-12-18T07:54:27;21.02;;;12.05;;
25365;SDS011;13315;48.274;-1.900;2022-12-18T07:56:53;20.02;;;11.93;;
25365;SDS011;13315;48.274;-1.900;2022-12-18T07:59:19;27.58;;;13.05;;
25365;SDS011;13315;48.274;-1.900;2022-12-18T08:01:45;25.85;;;11.93;;
25365;SDS011;13315;48.274;-1.900;2022-12-18T08:04:11;21.85;;;12.82;;
25365;SDS011;13315;48.274;-1.900;2022-12-18T08:06:37;29.90;;;13.30;;
25365;SDS011;13315;48.274;-1.900;2022-12-18T08:09:03;29.42;;;13.23;;
25365;SDS011;13315;48.274;-1.900;2022-12-18T08:11:30;23.10;;;12.90;;
25365;SDS011;13315;48.274;-1.900;2022-12-18T08:13:57;26.27;;;13.23;;
25365;SDS011;13315;48.274;-1.900;2022-12-18T08:16:23;23.73;;;12.20;;
25365;SDS011;13315;48.274;-1.900;2022-12-18T08:18:51;25.27;;;12.52;;
25365;SDS011;13315;48.274;-1.900;2022-12-18T08:21:21;27.42;;;13.25;;
25365;SDS011;13315;48.274;-1.900;2022-12-18T08:23:48;27.10;;;13.18;;
25365;SDS011;13315;48.274;-1.900;2022-12-18T08:26:14;23.10;;;12.45;;
25365;SDS011;13315;48.274;-1.900;2022-12-18T08:28:41;23.17;;;13.52;;
25365;SDS011;13315;48.274;-1.900;2022-12-18T08:31:07;26.52;;;15.00;;
25365;SDS011;13315;48.274;-1.900;2022-12-18T08:33:34;27.17;;;13.63;;
25365;SDS011;13315;48.274;-1.900;2022-12-18T08:36:00;31.48;;;13.43;;
25365;SDS011;13315;48.274;-1.900;2022-12-18T08:38:27;27.58;;;14.18;;
25365;SDS011;13315;48.274;-1.900;2022-12-18T08:41:00;24.63;;;13.18;;
25365;SDS011;13315;48.274;-1.900;2022-12-18T08:43:26;29.13;;;13.52;;
25365;SDS011;13315;48.274;-1.900;2022-12-18T08:46:11;28.20;;;13.77;;
25365;SDS011;13315;48.274;-1.900;2022-12-18T08:48:37;28.45;;;14.32;;
25365;SDS011;13315;48.274;-1.900;2022-12-18T08:51:03;32.30;;;14.75;;
25365;SDS011;13315;48.274;-1.900;2022-12-18T08:53:29;25.88;;;13.38;;
25365;SDS011;13315;48.274;-1.900;2022-12-18T08:55:56;27.40;;;14.15;;
25365;SDS011;13315;48.274;-1.900;2022-12-18T08:58:22;23.95;;;13.48;;
25365;SDS011;13315;48.274;-1.900;2022-12-18T09:00:48;30.98;;;14.48;;
25365;SDS011;13315;48.274;-1.900;2022-12-18T09:03:15;26.88;;;14.10;;
25365;SDS011;13315;48.274;-1.900;2022-12-18T09:05:41;27.38;;;13.93;;
25365;SDS011;13315;48.274;-1.900;2022-12-18T09:08:07;27.27;;;13.77;;
25365;SDS011;13315;48.274;-1.900;2022-12-18T09:10:33;24.00;;;13.93;;
25365;SDS011;13315;48.274;-1.900;2022-12-18T09:13:00;22.50;;;13.35;;
25365;SDS011;13315;48.274;-1.900;2022-12-18T09:15:26;30.00;;;13.98;;
25365;SDS011;13315;48.274;-1.900;2022-12-18T09:17:52;26.27;;;14.20;;
25365;SDS011;13315;48.274;-1.900;2022-12-18T09:20:18;26.98;;;13.27;;
25365;SDS011;13315;48.274;-1.900;2022-12-18T09:22:45;27.95;;;14.90;;
25365;SDS011;13315;48.274;-1.900;2022-12-18T09:25:11;23.85;;;13.30;;
25365;SDS011;13315;48.274;-1.900;2022-12-18T09:27:37;26.02;;;13.07;;
25365;SDS011;13315;48.274;-1.900;2022-12-18T09:30:04;25.85;;;13.85;;
25365;SDS011;13315;48.274;-1.900;2022-12-18T09:32:30;26.77;;;14.10;;
25365;SDS011;13315;48.274;-1.900;2022-12-18T09:34:56;24.15;;;13.93;;
25365;SDS011;13315;48.274;-1.900;2022-12-18T09:37:22;29.38;;;14.07;;
25365;SDS011;13315;48.274;-1.900;2022-12-18T09:39:48;31.60;;;14.05;;
25365;SDS011;13315;48.274;-1.900;2022-12-18T09:42:17;26.38;;;13.32;;
25365;SDS011;13315;48.274;-1.900;2022-12-18T09:44:48;29.23;;;13.27;;
25365;SDS011;13315;48.274;-1.900;2022-12-18T09:47:25;33.75;;;14.50;;
25365;SDS011;13315;48.274;-1.900;2022-12-18T09:49:57;27.35;;;13.32;;
25365;SDS011;13315;48.274;-1.900;2022-12-18T09:52:34;25.95;;;13.95;;
25365;SDS011;13315;48.274;-1.900;2022-12-18T09:57:29;23.58;;;12.90;;
25365;SDS011;13315;48.274;-1.900;2022-12-18T09:59:58;24.90;;;12.48;;
25365;SDS011;13315;48.274;-1.900;2022-12-18T10:02:30;34.50;;;12.43;;
25365;SDS011;13315;48.274;-1.900;2022-12-18T10:05:07;20.27;;;11.68;;
25365;SDS011;13315;48.274;-1.900;2022-12-18T10:10:23;23.92;;;12.32;;
25365;SDS011;13315;48.274;-1.900;2022-12-18T10:12:57;29.60;;;11.75;;
25365;SDS011;13315;48.274;-1.900;2022-12-18T10:20:43;22.10;;;11.77;;
25365;SDS011;13315;48.274;-1.900;2022-12-18T10:26:00;19.05;;;11.00;;
25365;SDS011;13315;48.274;-1.900;2022-12-18T10:28:27;28.98;;;11.73;;
25365;SDS011;13315;48.274;-1.900;2022-12-18T10:30:55;19.70;;;10.02;;
25365;SDS011;13315;48.274;-1.900;2022-12-18T10:33:22;29.35;;;11.05;;
25365;SDS011;13315;48.274;-1.900;2022-12-18T10:35:49;26.02;;;11.27;;
25365;SDS011;13315;48.274;-1.900;2022-12-18T10:43:30;17.27;;;10.88;;
25365;SDS011;13315;48.274;-1.900;2022-12-18T10:46:01;16.65;;;10.27;;
25365;SDS011;13315;48.274;-1.900;2022-12-18T10:48:27;18.65;;;10.65;;
25365;SDS011;13315;48.274;-1.900;2022-12-18T10:50:53;27.05;;;10.48;;
25365;SDS011;13315;48.274;-1.900;2022-12-18T10:53:21;18.75;;;10.07;;
25365;SDS011;13315;48.274;-1.900;2022-12-18T10:55:47;24.52;;;10.70;;
25365;SDS011;13315;48.274;-1.900;2022-12-18T10:58:24;22.27;;;10.65;;
25365;SDS011;13315;48.274;-1.900;2022-12-18T11:03:34;20.27;;;10.45;;
25365;SDS011;13315;48.274;-1.900;2022-12-18T11:08:30;17.83;;;9.88;;
25365;SDS011;13315;48.274;-1.900;2022-12-18T11:10:56;15.68;;;9.02;;
25365;SDS011;13315;48.274;-1.900;2022-12-18T11:13:23;17.35;;;10.55;;
25365;SDS011;13315;48.274;-1.900;2022-12-18T11:15:50;16.45;;;10.05;;
25365;SDS011;13315;48.274;-1.900;2022-12-18T11:18:22;21.80;;;9.45;;
25365;SDS011;13315;48.274;-1.900;2022-12-18T11:20:51;24.88;;;10.68;;
25365;SDS011;13315;48.274;-1.900;2022-12-18T11:23:18;16.73;;;9.50;;
25365;SDS011;13315;48.274;-1.900;2022-12-18T11:25:52;20.60;;;10.50;;
25365;SDS011;13315;48.274;-1.900;2022-12-18T11:33:35;17.52;;;9.68;;
25365;SDS011;13315;48.274;-1.900;2022-12-18T11:36:03;15.63;;;9.40;;
25365;SDS011;13315;48.274;-1.900;2022-12-18T11:38:39;25.02;;;11.18;;
25365;SDS011;13315;48.274;-1.900;2022-12-18T11:46:09;16.52;;;9.70;;
25365;SDS011;13315;48.274;-1.900;2022-12-18T11:48:38;22.45;;;9.30;;
25365;SDS011;13315;48.274;-1.900;2022-12-18T11:51:09;14.63;;;9.75;;
25365;SDS011;13315;48.274;-1.900;2022-12-18T11:53:36;18.80;;;9.63;;
25365;SDS011;13315;48.274;-1.900;2022-12-18T11:58:47;19.02;;;10.23;;
25365;SDS011;13315;48.274;-1.900;2022-12-18T12:09:30;19.17;;;9.48;;
25365;SDS011;13315;48.274;-1.900;2022-12-18T12:12:10;21.58;;;9.60;;
25365;SDS011;13315;48.274;-1.900;2022-12-18T12:20:00;26.10;;;10.25;;
25365;SDS011;13315;48.274;-1.900;2022-12-18T12:30:06;26.38;;;11.20;;
25365;SDS011;13315;48.274;-1.900;2022-12-18T12:32:48;19.55;;;10.98;;
25365;SDS011;13315;48.274;-1.900;2022-12-18T12:35:22;28.00;;;11.30;;
25365;SDS011;13315;48.274;-1.900;2022-12-18T12:40:36;17.58;;;10.13;;
25365;SDS011;13315;48.274;-1.900;2022-12-18T12:43:05;19.35;;;11.57;;
25365;SDS011;13315;48.274;-1.900;2022-12-18T12:46:21;20.90;;;11.43;;
25365;SDS011;13315;48.274;-1.900;2022-12-18T12:48:34;20.45;;;11.35;;
25365;SDS011;13315;48.274;-1.900;2022-12-18T12:51:01;20.55;;;11.48;;
25365;SDS011;13315;48.274;-1.900;2022-12-18T12:53:30;18.05;;;11.23;;
25365;SDS011;13315;48.274;-1.900;2022-12-18T12:55:58;18.90;;;11.23;;
25365;SDS011;13315;48.274;-1.900;2022-12-18T13:01:09;25.92;;;12.60;;
25365;SDS011;13315;48.274;-1.900;2022-12-18T13:08:50;23.13;;;13.63;;
25365;SDS011;13315;48.274;-1.900;2022-12-18T13:14:21;23.80;;;14.00;;
25365;SDS011;13315;48.274;-1.900;2022-12-18T13:16:47;22.90;;;13.00;;
25365;SDS011;13315;48.274;-1.900;2022-12-18T13:19:23;20.98;;;12.60;;
25365;SDS011;13315;48.274;-1.900;2022-12-18T13:21:52;24.08;;;13.70;;
25365;SDS011;13315;48.274;-1.900;2022-12-18T13:24:23;25.73;;;15.05;;
25365;SDS011;13315;48.274;-1.900;2022-12-18T13:26:50;26.42;;;14.25;;
25365;SDS011;13315;48.274;-1.900;2022-12-18T13:32:01;23.73;;;13.98;;
25365;SDS011;13315;48.274;-1.900;2022-12-18T13:34:28;26.13;;;15.27;;
25365;SDS011;13315;48.274;-1.900;2022-12-18T13:36:55;22.23;;;13.55;;
25365;SDS011;13315;48.274;-1.900;2022-12-18T13:39:23;29.63;;;13.43;;
25365;SDS011;13315;48.274;-1.900;2022-12-18T13:41:54;25.00;;;14.30;;
25365;SDS011;13315;48.274;-1.900;2022-12-18T13:44:55;29.05;;;13.95;;
25365;SDS011;13315;48.274;-1.900;2022-12-18T13:47:32;22.15;;;13.65;;
25365;SDS011;13315;48.274;-1.900;2022-12-18T13:49:59;22.80;;;12.90;;
25365;SDS011;13315;48.274;-1.900;2022-12-18T13:52:26;31.88;;;13.82;;
25365;SDS011;13315;48.274;-1.900;2022-12-18T13:54:54;30.67;;;14.52;;
25365;SDS011;13315;48.274;-1.900;2022-12-18T13:57:28;40.05;;;13.48;;
25365;SDS011;13315;48.274;-1.900;2022-12-18T13:59:55;34.83;;;14.70;;
25365;SDS011;13315;48.274;-1.900;2022-12-18T14:02:26;28.77;;;14.57;;
25365;SDS011;13315;48.274;-1.900;2022-12-18T14:04:52;29.73;;;13.45;;
25365;SDS011;13315;48.274;-1.900;2022-12-18T14:07:20;30.50;;;13.55;;
25365;SDS011;13315;48.274;-1.900;2022-12-18T14:09:51;27.55;;;13.98;;
25365;SDS011;13315;48.274;-1.900;2022-12-18T14:12:20;29.05;;;13.93;;
25365;SDS011;13315;48.274;-1.900;2022-12-18T14:15:06;28.92;;;13.10;;
25365;SDS011;13315;48.274;-1.900;2022-12-18T14:17:35;30.10;;;13.95;;
25365;SDS011;13315;48.274;-1.900;2022-12-18T14:20:02;25.17;;;13.25;;
25365;SDS011;13315;48.274;-1.900;2022-12-18T14:22:28;32.60;;;13.75;;
25365;SDS011;13315;48.274;-1.900;2022-12-18T14:25:06;26.38;;;12.43;;
25365;SDS011;13315;48.274;-1.900;2022-12-18T14:27:36;29.60;;;11.85;;
25365;SDS011;13315;48.274;-1.900;2022-12-18T14:30:16;31.55;;;12.90;;
25365;SDS011;13315;48.274;-1.900;2022-12-18T14:32:43;24.05;;;12.93;;
25365;SDS011;13315;48.274;-1.900;2022-12-18T14:35:13;32.22;;;13.18;;
25365;SDS011;13315;48.274;-1.900;2022-12-18T14:37:39;28.38;;;11.88;;
25365;SDS011;13315;48.274;-1.900;2022-12-18T14:40:05;27.70;;;12.55;;
25365;SDS011;13315;48.274;-1.900;2022-12-18T14:42:31;20.77;;;12.35;;
25365;SDS011;13315;48.274;-1.900;2022-12-18T14:48:00;22.35;;;12.60;;
25365;SDS011;13315;48.274;-1.900;2022-12-18T14:50:26;21.77;;;11.48;;
25365;SDS011;13315;48.274;-1.900;2022-12-18T14:52:52;23.25;;;12.63;;
25365;SDS011;13315;48.274;-1.900;2022-12-18T14:55:19;23.52;;;12.52;;
25365;SDS011;13315;48.274;-1.900;2022-12-18T14:57:48;22.38;;;12.90;;
25365;SDS011;13315;48.274;-1.900;2022-12-18T15:00:16;27.85;;;12.82;;
25365;SDS011;13315;48.274;-1.900;2022-12-18T15:02:43;29.57;;;13.10;;
25365;SDS011;13315;48.274;-1.900;2022-12-18T15:07:43;26.75;;;13.32;;
25365;SDS011;13315;48.274;-1.900;2022-12-18T15:12:37;27.58;;;13.57;;
25365;SDS011;13315;48.274;-1.900;2022-12-18T15:15:04;26.67;;;14.48;;
25365;SDS011;13315;48.274;-1.900;2022-12-18T15:17:31;34.67;;;12.95;;
25365;SDS011;13315;48.274;-1.900;2022-12-18T15:20:02;22.17;;;13.65;;
25365;SDS011;13315;48.274;-1.900;2022-12-18T15:22:29;20.40;;;12.07;;
25365;SDS011;13315;48.274;-1.900;2022-12-18T15:24:56;20.27;;;13.40;;
25365;SDS011;13315;48.274;-1.900;2022-12-18T15:27:27;22.73;;;12.98;;
25365;SDS011;13315;48.274;-1.900;2022-12-18T15:32:26;27.33;;;12.75;;
25365;SDS011;13315;48.274;-1.900;2022-12-18T15:35:02;21.15;;;12.60;;
25365;SDS011;13315;48.274;-1.900;2022-12-18T15:37:28;28.75;;;12.75;;
25365;SDS011;13315;48.274;-1.900;2022-12-18T15:39:54;20.33;;;12.18;;
25365;SDS011;13315;48.274;-1.900;2022-12-18T15:42:20;21.65;;;12.82;;
25365;SDS011;13315;48.274;-1.900;2022-12-18T15:45:12;22.88;;;13.02;;
25365;SDS011;13315;48.274;-1.900;2022-12-18T15:47:38;20.33;;;13.30;;
25365;SDS011;13315;48.274;-1.900;2022-12-18T15:50:04;22.13;;;13.60;;
25365;SDS011;13315;48.274;-1.900;2022-12-18T15:52:39;24.38;;;12.82;;
25365;SDS011;13315;48.274;-1.900;2022-12-18T15:58:17;25.27;;;13.82;;
25365;SDS011;13315;48.274;-1.900;2022-12-18T16:00:45;23.10;;;14.00;;
25365;SDS011;13315;48.274;-1.900;2022-12-18T16:03:11;23.35;;;14.02;;
25365;SDS011;13315;48.274;-1.900;2022-12-18T16:05:37;23.15;;;13.68;;
25365;SDS011;13315;48.274;-1.900;2022-12-18T16:08:03;22.48;;;13.50;;
25365;SDS011;13315;48.274;-1.900;2022-12-18T16:10:29;27.88;;;14.10;;
25365;SDS011;13315;48.274;-1.900;2022-12-18T16:12:55;25.70;;;13.77;;
25365;SDS011;13315;48.274;-1.900;2022-12-18T16:15:21;24.90;;;14.30;;
25365;SDS011;13315;48.274;-1.900;2022-12-18T16:17:47;24.23;;;13.27;;